sensor_id;sensor_type;location;lat;lon;timestamp;pressure;altitude;pressure_sealevel;temperature;humidity
11413;BME280;5762;43.256;26.960;2023-06-04T00:00:34;99914.34;;;17.49;100.00
11413;BME280;5762;43.256;26.960;2023-06-04T00:03:02;99907.94;;;17.32;100.00
11413;BME280;5762;43.256;26.960;2023-06-04T00:05:31;99903.36;;;17.24;100.00
11413;BME280;5762;43.256;26.960;2023-06-04T00:08:00;99911.31;;;17.17;100.00
11413;BME280;5762;43.256;26.960;2023-06-04T00:10:29;99902.83;;;17.04;100.00
11413;BME280;5762;43.256;26.960;2023-06-04T00:12:58;99911.81;;;16.92;100.00
11413;BME280;5762;43.256;26.960;2023-06-04T00:15:27;99915.69;;;16.91;100.00
11413;BME280;5762;43.256;26.960;2023-06-04T00:17:56;99913.84;;;16.89;100.00
11413;BME280;5762;43.256;26.960;2023-06-04T00:20:25;99918.02;;;16.81;100.00
11413;BME280;5762;43.256;26.960;2023-06-04T00:22:53;99914.83;;;16.79;100.00
11413;BME280;5762;43.256;26.960;2023-06-04T00:25:22;99919.92;;;16.74;100.00
11413;BME280;5762;43.256;26.960;2023-06-04T00:27:51;99923.89;;;16.70;100.00
11413;BME280;5762;43.256;26.960;2023-06-04T00:30:20;99925.16;;;16.73;100.00
11413;BME280;5762;43.256;26.960;2023-06-04T00:32:48;99928.45;;;16.72;100.00
11413;BME280;5762;43.256;26.960;2023-06-04T00:35:17;99927.76;;;16.69;100.00
11413;BME280;5762;43.256;26.960;2023-06-04T00:37:46;99922.29;;;16.69;100.00
11413;BME280;5762;43.256;26.960;2023-06-04T00:40:15;99924.66;;;16.65;100.00
11413;BME280;5762;43.256;26.960;2023-06-04T00:42:44;99919.09;;;16.67;100.00
11413;BME280;5762;43.256;26.960;2023-06-04T00:45:13;99918.55;;;16.53;100.00
11413;BME280;5762;43.256;26.960;2023-06-04T00:47:42;99925.66;;;16.60;100.00
11413;BME280;5762;43.256;26.960;2023-06-04T00:50:11;99917.83;;;16.65;100.00
11413;BME280;5762;43.256;26.960;2023-06-04T00:52:40;99928.98;;;16.66;100.00
11413;BME280;5762;43.256;26.960;2023-06-04T00:55:09;99925.69;;;16.66;100.00
11413;BME280;5762;43.256;26.960;2023-06-04T00:57:39;99923.08;;;16.49;100.00
11413;BME280;5762;43.256;26.960;2023-06-04T01:00:07;99921.67;;;16.43;100.00
11413;BME280;5762;43.256;26.960;2023-06-04T01:02:37;99925.16;;;16.37;100.00
11413;BME280;5762;43.256;26.960;2023-06-04T01:07:36;99931.28;;;16.34;100.00
11413;BME280;5762;43.256;26.960;2023-06-04T01:10:05;99939.34;;;16.31;100.00
11413;BME280;5762;43.256;26.960;2023-06-04T01:12:33;99931.48;;;16.29;100.00
11413;BME280;5762;43.256;26.960;2023-06-04T01:15:02;99942.31;;;16.32;100.00
11413;BME280;5762;43.256;26.960;2023-06-04T01:17:33;99943.44;;;16.31;100.00
11413;BME280;5762;43.256;26.960;2023-06-04T01:25:33;99952.88;;;16.13;100.00
11413;BME280;5762;43.256;26.960;2023-06-04T01:28:02;99959.19;;;16.04;100.00
11413;BME280;5762;43.256;26.960;2023-06-04T01:30:33;99960.31;;;16.03;100.00
11413;BME280;5762;43.256;26.960;2023-06-04T01:33:02;99963.61;;;15.88;100.00
11413;BME280;5762;43.256;26.960;2023-06-04T01:35:30;99975.14;;;15.70;100.00
11413;BME280;5762;43.256;26.960;2023-06-04T01:37:59;99986.80;;;15.65;100.00
11413;BME280;5762;43.256;26.960;2023-06-04T01:40:28;99989.73;;;15.42;100.00
11413;BME280;5762;43.256;26.960;2023-06-04T01:42:58;99995.99;;;15.26;100.00
11413;BME280;5762;43.256;26.960;2023-06-04T01:45:27;100010.55;;;15.15;100.00
11413;BME280;5762;43.256;26.960;2023-06-04T01:47:56;100024.66;;;15.08;100.00
11413;BME280;5762;43.256;26.960;2023-06-04T01:50:25;100029.53;;;15.00;100.00
11413;BME280;5762;43.256;26.960;2023-06-04T01:52:54;100033.70;;;14.98;100.00
11413;BME280;5762;43.256;26.960;2023-06-04T01:55:22;100043.87;;;14.95;100.00
11413;BME280;5762;43.256;26.960;2023-06-04T01:57:51;100038.75;;;14.93;100.00
11413;BME280;5762;43.256;26.960;2023-06-04T02:00:20;100043.95;;;14.92;100.00
11413;BME280;5762;43.256;26.960;2023-06-04T02:02:49;100050.86;;;14.98;100.00
11413;BME280;5762;43.256;26.960;2023-06-04T02:05:18;100051.81;;;14.94;100.00
11413;BME280;5762;43.256;26.960;2023-06-04T02:07:46;100051.02;;;14.93;100.00
11413;BME280;5762;43.256;26.960;2023-06-04T02:10:15;100050.21;;;14.93;100.00
11413;BME280;5762;43.256;26.960;2023-06-04T02:12:58;100052.30;;;14.96;100.00
11413;BME280;5762;43.256;26.960;2023-06-04T02:15:26;100053.02;;;14.99;100.00
11413;BME280;5762;43.256;26.960;2023-06-04T02:17:58;100060.08;;;15.00;100.00
11413;BME280;5762;43.256;26.960;2023-06-04T02:20:28;100060.87;;;15.00;100.00
11413;BME280;5762;43.256;26.960;2023-06-04T02:22:56;100060.00;;;15.02;100.00
11413;BME280;5762;43.256;26.960;2023-06-04T02:25:24;100058.24;;;15.06;100.00
11413;BME280;5762;43.256;26.960;2023-06-04T02:27:52;100063.31;;;15.19;100.00
11413;BME280;5762;43.256;26.960;2023-06-04T02:30:21;100062.11;;;15.23;100.00
11413;BME280;5762;43.256;26.960;2023-06-04T02:32:50;100054.86;;;15.27;100.00
11413;BME280;5762;43.256;26.960;2023-06-04T02:35:19;100053.27;;;15.34;100.00
11413;BME280;5762;43.256;26.960;2023-06-04T02:37:48;100050.61;;;15.32;100.00
11413;BME280;5762;43.256;26.960;2023-06-04T02:40:18;100051.09;;;15.25;100.00
11413;BME280;5762;43.256;26.960;2023-06-04T02:42:46;100049.73;;;15.25;100.00
11413;BME280;5762;43.256;26.960;2023-06-04T02:45:15;100049.89;;;15.46;100.00
11413;BME280;5762;43.256;26.960;2023-06-04T02:47:44;100052.30;;;15.39;100.00
11413;BME280;5762;43.256;26.960;2023-06-04T02:50:13;100052.13;;;15.53;100.00
11413;BME280;5762;43.256;26.960;2023-06-04T02:52:45;100043.81;;;15.58;100.00
11413;BME280;5762;43.256;26.960;2023-06-04T02:55:14;100039.59;;;15.69;100.00
11413;BME280;5762;43.256;26.960;2023-06-04T02:57:43;100036.22;;;15.72;100.00
11413;BME280;5762;43.256;26.960;2023-06-04T03:00:12;100035.16;;;15.79;100.00
11413;BME280;5762;43.256;26.960;2023-06-04T03:02:42;100030.84;;;15.69;100.00
11413;BME280;5762;43.256;26.960;2023-06-04T03:05:11;100032.77;;;15.69;100.00
11413;BME280;5762;43.256;26.960;2023-06-04T03:07:41;100030.67;;;15.74;100.00
11413;BME280;5762;43.256;26.960;2023-06-04T03:10:12;100028.84;;;15.72;100.00
11413;BME280;5762;43.256;26.960;2023-06-04T03:12:41;100029.72;;;15.70;100.00
11413;BME280;5762;43.256;26.960;2023-06-04T03:15:09;100024.67;;;15.66;100.00
11413;BME280;5762;43.256;26.960;2023-06-04T03:17:38;100014.15;;;15.71;100.00
11413;BME280;5762;43.256;26.960;2023-06-04T03:20:07;100021.19;;;15.81;100.00
11413;BME280;5762;43.256;26.960;2023-06-04T03:22:36;100024.25;;;15.79;100.00
11413;BME280;5762;43.256;26.960;2023-06-04T03:25:04;100015.58;;;15.77;100.00
11413;BME280;5762;43.256;26.960;2023-06-04T03:27:32;100023.19;;;15.86;100.00
11413;BME280;5762;43.256;26.960;2023-06-04T03:30:01;100017.66;;;15.80;100.00
11413;BME280;5762;43.256;26.960;2023-06-04T03:32:30;100011.48;;;15.77;100.00
11413;BME280;5762;43.256;26.960;2023-06-04T03:35:00;100017.79;;;15.92;100.00
11413;BME280;5762;43.256;26.960;2023-06-04T03:37:29;100013.02;;;15.95;100.00
11413;BME280;5762;43.256;26.960;2023-06-04T03:39:58;100016.45;;;15.98;100.00
11413;BME280;5762;43.256;26.960;2023-06-04T03:42:27;100013.78;;;15.90;100.00
11413;BME280;5762;43.256;26.960;2023-06-04T03:44:56;100011.08;;;15.81;100.00
11413;BME280;5762;43.256;26.960;2023-06-04T03:47:25;100018.70;;;15.82;100.00
11413;BME280;5762;43.256;26.960;2023-06-04T03:49:54;100021.20;;;15.95;100.00
11413;BME280;5762;43.256;26.960;2023-06-04T03:52:23;100019.03;;;15.95;100.00
11413;BME280;5762;43.256;26.960;2023-06-04T03:54:51;100023.42;;;15.87;100.00
11413;BME280;5762;43.256;26.960;2023-06-04T03:57:20;100030.08;;;16.07;100.00
11413;BME280;5762;43.256;26.960;2023-06-04T03:59:49;100030.96;;;15.90;100.00
11413;BME280;5762;43.256;26.960;2023-06-04T04:02:17;100044.16;;;15.94;100.00
11413;BME280;5762;43.256;26.960;2023-06-04T04:04:46;100039.88;;;16.08;100.00
11413;BME280;5762;43.256;26.960;2023-06-04T04:07:16;100046.78;;;16.05;100.00
11413;BME280;5762;43.256;26.960;2023-06-04T04:09:44;100049.64;;;16.18;100.00
11413;BME280;5762;43.256;26.960;2023-06-04T04:12:13;100042.98;;;16.13;100.00
11413;BME280;5762;43.256;26.960;2023-06-04T04:14:42;100046.34;;;16.18;100.00
11413;BME280;5762;43.256;26.960;2023-06-04T04:17:10;100049.41;;;16.17;100.00
11413;BME280;5762;43.256;26.960;2023-06-04T04:19:39;100053.41;;;16.19;100.00
11413;BME280;5762;43.256;26.960;2023-06-04T04:22:07;100055.75;;;16.15;100.00
11413;BME280;5762;43.256;26.960;2023-06-04T04:24:36;100058.39;;;16.32;100.00
11413;BME280;5762;43.256;26.960;2023-06-04T04:27:05;100058.84;;;16.28;100.00
11413;BME280;5762;43.256;26.960;2023-06-04T04:29:34;100057.33;;;16.24;100.00
11413;BME280;5762;43.256;26.960;2023-06-04T04:32:04;100065.84;;;16.23;100.00
11413;BME280;5762;43.256;26.960;2023-06-04T04:34:32;100065.84;;;16.37;100.00
11413;BME280;5762;43.256;26.960;2023-06-04T04:37:01;100069.41;;;16.29;100.00
11413;BME280;5762;43.256;26.960;2023-06-04T04:39:30;100070.23;;;16.45;100.00
11413;BME280;5762;43.256;26.960;2023-06-04T04:41:59;100071.27;;;16.46;100.00
11413;BME280;5762;43.256;26.960;2023-06-04T04:44:28;100068.27;;;16.54;100.00
11413;BME280;5762;43.256;26.960;2023-06-04T04:46:57;100069.02;;;16.48;100.00
11413;BME280;5762;43.256;26.960;2023-06-04T04:49:25;100070.06;;;16.64;100.00
11413;BME280;5762;43.256;26.960;2023-06-04T04:51:53;100067.37;;;16.56;100.00
11413;BME280;5762;43.256;26.960;2023-06-04T04:54:22;100070.34;;;16.71;100.00
11413;BME280;5762;43.256;26.960;2023-06-04T04:56:51;100075.67;;;16.83;100.00
11413;BME280;5762;43.256;26.960;2023-06-04T04:59:20;100072.37;;;16.98;100.00
11413;BME280;5762;43.256;26.960;2023-06-04T05:01:49;100081.98;;;16.89;100.00
11413;BME280;5762;43.256;26.960;2023-06-04T05:04:18;100080.11;;;17.02;100.00
11413;BME280;5762;43.256;26.960;2023-06-04T05:06:47;100081.81;;;17.00;100.00
11413;BME280;5762;43.256;26.960;2023-06-04T05:09:15;100079.19;;;17.19;100.00
11413;BME280;5762;43.256;26.960;2023-06-04T05:11:45;100083.74;;;17.00;100.00
11413;BME280;5762;43.256;26.960;2023-06-04T05:14:13;100084.82;;;17.07;100.00
11413;BME280;5762;43.256;26.960;2023-06-04T05:16:43;100082.73;;;17.19;100.00
11413;BME280;5762;43.256;26.960;2023-06-04T05:19:12;100079.03;;;17.30;100.00
11413;BME280;5762;43.256;26.960;2023-06-04T05:21:41;100076.33;;;17.42;100.00
11413;BME280;5762;43.256;26.960;2023-06-04T05:24:09;100081.53;;;17.56;100.00
11413;BME280;5762;43.256;26.960;2023-06-04T05:26:37;100074.32;;;17.78;100.00
11413;BME280;5762;43.256;26.960;2023-06-04T05:29:06;100078.87;;;17.74;100.00
11413;BME280;5762;43.256;26.960;2023-06-04T05:31:34;100071.92;;;17.77;100.00
11413;BME280;5762;43.256;26.960;2023-06-04T05:34:03;100074.64;;;17.70;100.00
11413;BME280;5762;43.256;26.960;2023-06-04T05:36:31;100075.10;;;17.66;100.00
11413;BME280;5762;43.256;26.960;2023-06-04T05:38:59;100079.38;;;17.88;100.00
11413;BME280;5762;43.256;26.960;2023-06-04T05:41:28;100091.51;;;17.99;100.00
11413;BME280;5762;43.256;26.960;2023-06-04T05:43:56;100086.49;;;18.01;100.00
11413;BME280;5762;43.256;26.960;2023-06-04T05:46:25;100076.45;;;18.18;100.00
11413;BME280;5762;43.256;26.960;2023-06-04T05:48:54;100080.59;;;18.36;100.00
11413;BME280;5762;43.256;26.960;2023-06-04T05:51:23;100088.01;;;18.29;100.00
11413;BME280;5762;43.256;26.960;2023-06-04T05:53:52;100086.75;;;18.51;100.00
11413;BME280;5762;43.256;26.960;2023-06-04T05:56:21;100084.92;;;18.49;100.00
11413;BME280;5762;43.256;26.960;2023-06-04T05:58:52;100075.45;;;18.53;100.00
11413;BME280;5762;43.256;26.960;2023-06-04T06:01:21;100075.56;;;18.81;100.00
11413;BME280;5762;43.256;26.960;2023-06-04T06:03:50;100070.07;;;18.87;100.00
11413;BME280;5762;43.256;26.960;2023-06-04T06:06:19;100078.41;;;18.96;100.00
11413;BME280;5762;43.256;26.960;2023-06-04T06:08:47;100077.72;;;19.39;100.00
11413;BME280;5762;43.256;26.960;2023-06-04T06:11:16;100078.47;;;19.52;100.00
11413;BME280;5762;43.256;26.960;2023-06-04T06:13:45;100080.73;;;19.62;100.00
11413;BME280;5762;43.256;26.960;2023-06-04T06:16:14;100073.17;;;19.81;100.00
11413;BME280;5762;43.256;26.960;2023-06-04T06:18:44;100079.66;;;19.73;100.00
11413;BME280;5762;43.256;26.960;2023-06-04T06:21:12;100089.29;;;19.67;100.00
11413;BME280;5762;43.256;26.960;2023-06-04T06:23:42;100091.80;;;19.88;100.00
11413;BME280;5762;43.256;26.960;2023-06-04T06:26:10;100086.50;;;20.11;100.00
11413;BME280;5762;43.256;26.960;2023-06-04T06:28:39;100084.09;;;20.31;100.00
11413;BME280;5762;43.256;26.960;2023-06-04T06:31:08;100083.14;;;20.01;100.00
11413;BME280;5762;43.256;26.960;2023-06-04T06:33:36;100084.75;;;20.02;100.00
11413;BME280;5762;43.256;26.960;2023-06-04T06:36:09;100085.70;;;19.94;100.00
11413;BME280;5762;43.256;26.960;2023-06-04T06:38:39;100088.73;;;19.83;100.00
11413;BME280;5762;43.256;26.960;2023-06-04T06:41:08;100090.88;;;19.90;100.00
11413;BME280;5762;43.256;26.960;2023-06-04T06:43:37;100090.37;;;20.16;100.00
11413;BME280;5762;43.256;26.960;2023-06-04T06:46:05;100083.95;;;20.33;100.00
11413;BME280;5762;43.256;26.960;2023-06-04T06:48:34;100088.30;;;20.50;100.00
11413;BME280;5762;43.256;26.960;2023-06-04T06:51:03;100090.24;;;20.40;100.00
11413;BME280;5762;43.256;26.960;2023-06-04T06:53:32;100089.23;;;20.32;100.00
11413;BME280;5762;43.256;26.960;2023-06-04T06:56:01;100080.63;;;20.65;100.00
11413;BME280;5762;43.256;26.960;2023-06-04T06:58:30;100094.37;;;20.65;100.00
11413;BME280;5762;43.256;26.960;2023-06-04T07:00:59;100091.30;;;20.77;100.00
11413;BME280;5762;43.256;26.960;2023-06-04T07:03:27;100089.41;;;20.81;100.00
11413;BME280;5762;43.256;26.960;2023-06-04T07:05:56;100091.94;;;20.80;100.00
11413;BME280;5762;43.256;26.960;2023-06-04T07:08:25;100094.58;;;20.92;100.00
11413;BME280;5762;43.256;26.960;2023-06-04T07:10:54;100090.73;;;20.87;100.00
11413;BME280;5762;43.256;26.960;2023-06-04T07:13:23;100090.86;;;21.10;100.00
11413;BME280;5762;43.256;26.960;2023-06-04T07:15:52;100094.97;;;21.00;100.00
11413;BME280;5762;43.256;26.960;2023-06-04T07:18:21;100094.20;;;21.09;100.00
11413;BME280;5762;43.256;26.960;2023-06-04T07:20:50;100093.03;;;21.20;100.00
11413;BME280;5762;43.256;26.960;2023-06-04T07:23:19;100094.81;;;21.28;100.00
11413;BME280;5762;43.256;26.960;2023-06-04T07:25:48;100091.62;;;21.26;100.00
11413;BME280;5762;43.256;26.960;2023-06-04T07:28:17;100093.30;;;21.40;100.00
11413;BME280;5762;43.256;26.960;2023-06-04T07:30:45;100095.20;;;21.20;100.00
11413;BME280;5762;43.256;26.960;2023-06-04T07:33:13;100093.34;;;20.89;100.00
11413;BME280;5762;43.256;26.960;2023-06-04T07:35:42;100098.06;;;20.63;100.00
11413;BME280;5762;43.256;26.960;2023-06-04T07:38:11;100100.59;;;20.62;100.00
11413;BME280;5762;43.256;26.960;2023-06-04T07:40:40;100097.34;;;20.66;100.00
11413;BME280;5762;43.256;26.960;2023-06-04T07:43:08;100093.27;;;20.86;100.00
11413;BME280;5762;43.256;26.960;2023-06-04T07:45:37;100094.08;;;21.21;100.00
11413;BME280;5762;43.256;26.960;2023-06-04T07:48:08;100099.22;;;21.52;100.00
11413;BME280;5762;43.256;26.960;2023-06-04T07:50:36;100101.98;;;21.32;100.00
11413;BME280;5762;43.256;26.960;2023-06-04T07:53:05;100109.66;;;21.62;100.00
11413;BME280;5762;43.256;26.960;2023-06-04T07:55:34;100107.50;;;21.32;100.00
11413;BME280;5762;43.256;26.960;2023-06-04T07:58:03;100111.84;;;21.33;100.00
11413;BME280;5762;43.256;26.960;2023-06-04T08:00:31;100117.61;;;20.93;100.00
11413;BME280;5762;43.256;26.960;2023-06-04T08:03:00;100105.16;;;21.25;100.00
11413;BME280;5762;43.256;26.960;2023-06-04T08:05:29;100102.27;;;21.56;100.00
11413;BME280;5762;43.256;26.960;2023-06-04T08:07:58;100102.34;;;21.60;100.00
11413;BME280;5762;43.256;26.960;2023-06-04T08:10:27;100105.31;;;21.70;100.00
11413;BME280;5762;43.256;26.960;2023-06-04T08:12:56;100108.13;;;22.03;100.00
11413;BME280;5762;43.256;26.960;2023-06-04T08:15:25;100097.80;;;22.00;100.00
11413;BME280;5762;43.256;26.960;2023-06-04T08:17:53;100098.23;;;21.92;100.00
11413;BME280;5762;43.256;26.960;2023-06-04T08:20:23;100093.76;;;22.03;100.00
11413;BME280;5762;43.256;26.960;2023-06-04T08:22:52;100091.58;;;22.49;100.00
11413;BME280;5762;43.256;26.960;2023-06-04T08:25:21;100094.83;;;22.94;100.00
11413;BME280;5762;43.256;26.960;2023-06-04T08:27:49;100106.89;;;23.25;100.00
11413;BME280;5762;43.256;26.960;2023-06-04T08:30:17;100120.27;;;23.36;100.00
11413;BME280;5762;43.256;26.960;2023-06-04T08:32:48;100120.11;;;23.39;100.00
11413;BME280;5762;43.256;26.960;2023-06-04T08:35:17;100134.94;;;23.27;100.00
11413;BME280;5762;43.256;26.960;2023-06-04T08:37:46;100124.48;;;22.84;100.00
11413;BME280;5762;43.256;26.960;2023-06-04T08:40:15;100128.91;;;22.92;100.00
11413;BME280;5762;43.256;26.960;2023-06-04T08:42:44;100136.16;;;22.87;100.00
11413;BME280;5762;43.256;26.960;2023-06-04T08:45:13;100136.83;;;23.20;100.00
11413;BME280;5762;43.256;26.960;2023-06-04T08:47:48;100126.97;;;23.22;100.00
11413;BME280;5762;43.256;26.960;2023-06-04T08:50:14;100135.30;;;23.69;100.00
11413;BME280;5762;43.256;26.960;2023-06-04T08:52:43;100140.56;;;23.34;100.00
11413;BME280;5762;43.256;26.960;2023-06-04T08:55:11;100133.53;;;22.97;100.00
11413;BME280;5762;43.256;26.960;2023-06-04T08:57:40;100141.45;;;22.99;100.00
11413;BME280;5762;43.256;26.960;2023-06-04T09:00:09;100139.96;;;23.18;100.00
11413;BME280;5762;43.256;26.960;2023-06-04T09:02:37;100140.28;;;23.13;100.00
11413;BME280;5762;43.256;26.960;2023-06-04T09:05:06;100143.01;;;23.26;100.00
11413;BME280;5762;43.256;26.960;2023-06-04T09:07:40;100135.55;;;23.14;100.00
11413;BME280;5762;43.256;26.960;2023-06-04T09:10:05;100152.08;;;23.40;100.00
11413;BME280;5762;43.256;26.960;2023-06-04T09:12:35;100144.60;;;23.27;100.00
11413;BME280;5762;43.256;26.960;2023-06-04T09:15:04;100143.64;;;23.56;100.00
11413;BME280;5762;43.256;26.960;2023-06-04T09:17:33;100149.38;;;23.90;100.00
11413;BME280;5762;43.256;26.960;2023-06-04T09:20:02;100153.70;;;23.58;100.00
11413;BME280;5762;43.256;26.960;2023-06-04T09:22:33;100144.03;;;23.58;100.00
11413;BME280;5762;43.256;26.960;2023-06-04T09:25:06;100139.66;;;23.70;100.00
11413;BME280;5762;43.256;26.960;2023-06-04T09:27:39;100138.42;;;24.01;100.00
11413;BME280;5762;43.256;26.960;2023-06-04T09:30:08;100142.05;;;23.88;100.00
11413;BME280;5762;43.256;26.960;2023-06-04T09:32:37;100143.23;;;23.87;100.00
11413;BME280;5762;43.256;26.960;2023-06-04T09:35:10;100143.20;;;24.04;100.00
11413;BME280;5762;43.256;26.960;2023-06-04T09:37:52;100143.07;;;23.93;100.00
11413;BME280;5762;43.256;26.960;2023-06-04T09:40:09;100142.25;;;23.72;100.00
11413;BME280;5762;43.256;26.960;2023-06-04T09:42:47;100154.95;;;23.47;100.00
11413;BME280;5762;43.256;26.960;2023-06-04T09:45:11;100145.84;;;23.60;100.00
11413;BME280;5762;43.256;26.960;2023-06-04T09:47:45;100139.13;;;23.91;100.00
11413;BME280;5762;43.256;26.960;2023-06-04T09:50:13;100134.42;;;24.15;100.00
11413;BME280;5762;43.256;26.960;2023-06-04T09:52:41;100144.36;;;24.40;100.00
11413;BME280;5762;43.256;26.960;2023-06-04T09:55:16;100141.53;;;24.33;100.00
11413;BME280;5762;43.256;26.960;2023-06-04T09:57:49;100142.05;;;24.46;100.00
11413;BME280;5762;43.256;26.960;2023-06-04T10:00:22;100139.20;;;24.59;100.00
11413;BME280;5762;43.256;26.960;2023-06-04T10:03:01;100145.45;;;24.12;100.00
11413;BME280;5762;43.256;26.960;2023-06-04T10:05:20;100143.67;;;24.50;100.00
11413;BME280;5762;43.256;26.960;2023-06-04T10:07:49;100137.41;;;24.57;100.00
11413;BME280;5762;43.256;26.960;2023-06-04T10:10:19;100142.56;;;24.38;100.00
11413;BME280;5762;43.256;26.960;2023-06-04T10:12:50;100138.69;;;24.46;100.00
11413;BME280;5762;43.256;26.960;2023-06-04T10:15:17;100142.23;;;24.06;100.00
11413;BME280;5762;43.256;26.960;2023-06-04T10:17:46;100140.50;;;24.11;100.00
11413;BME280;5762;43.256;26.960;2023-06-04T10:20:16;100136.85;;;24.20;100.00
11413;BME280;5762;43.256;26.960;2023-06-04T10:22:46;100144.03;;;23.91;100.00
11413;BME280;5762;43.256;26.960;2023-06-04T10:25:15;100134.23;;;23.97;100.00
11413;BME280;5762;43.256;26.960;2023-06-04T10:27:44;100136.07;;;24.03;100.00
11413;BME280;5762;43.256;26.960;2023-06-04T10:30:14;100138.67;;;24.05;100.00
11413;BME280;5762;43.256;26.960;2023-06-04T10:32:43;100127.70;;;23.96;100.00
11413;BME280;5762;43.256;26.960;2023-06-04T10:35:11;100134.52;;;23.85;100.00
11413;BME280;5762;43.256;26.960;2023-06-04T10:37:41;100135.44;;;23.50;100.00
11413;BME280;5762;43.256;26.960;2023-06-04T10:40:10;100130.07;;;23.77;100.00
11413;BME280;5762;43.256;26.960;2023-06-04T10:42:40;100122.39;;;24.17;100.00
11413;BME280;5762;43.256;26.960;2023-06-04T10:45:08;100135.41;;;23.96;100.00
11413;BME280;5762;43.256;26.960;2023-06-04T10:47:36;100132.98;;;23.91;100.00
11413;BME280;5762;43.256;26.960;2023-06-04T10:50:09;100132.67;;;23.80;100.00
11413;BME280;5762;43.256;26.960;2023-06-04T10:52:39;100130.66;;;23.77;100.00
11413;BME280;5762;43.256;26.960;2023-06-04T10:55:08;100129.68;;;23.62;100.00
11413;BME280;5762;43.256;26.960;2023-06-04T10:57:37;100129.73;;;23.65;100.00
11413;BME280;5762;43.256;26.960;2023-06-04T11:00:06;100129.36;;;23.84;100.00
11413;BME280;5762;43.256;26.960;2023-06-04T11:02:35;100134.45;;;23.65;100.00
11413;BME280;5762;43.256;26.960;2023-06-04T11:05:05;100129.61;;;23.88;100.00
11413;BME280;5762;43.256;26.960;2023-06-04T11:07:40;100131.80;;;23.92;100.00
11413;BME280;5762;43.256;26.960;2023-06-04T11:10:09;100131.78;;;23.72;100.00
11413;BME280;5762;43.256;26.960;2023-06-04T11:12:48;100133.21;;;24.13;100.00
11413;BME280;5762;43.256;26.960;2023-06-04T11:15:20;100126.69;;;23.94;100.00
11413;BME280;5762;43.256;26.960;2023-06-04T11:17:54;100135.56;;;23.90;100.00
11413;BME280;5762;43.256;26.960;2023-06-04T11:20:19;100139.88;;;23.54;100.00
11413;BME280;5762;43.256;26.960;2023-06-04T11:22:58;100133.29;;;23.66;100.00
11413;BME280;5762;43.256;26.960;2023-06-04T11:25:29;100138.39;;;23.64;100.00
11413;BME280;5762;43.256;26.960;2023-06-04T11:27:59;100134.79;;;23.60;100.00
11413;BME280;5762;43.256;26.960;2023-06-04T11:30:28;100134.27;;;23.51;100.00
11413;BME280;5762;43.256;26.960;2023-06-04T11:33:00;100138.14;;;23.59;100.00
11413;BME280;5762;43.256;26.960;2023-06-04T11:35:29;100139.14;;;23.61;100.00
11413;BME280;5762;43.256;26.960;2023-06-04T11:37:58;100139.08;;;23.87;100.00
11413;BME280;5762;43.256;26.960;2023-06-04T11:40:27;100144.44;;;23.90;100.00
11413;BME280;5762;43.256;26.960;2023-06-04T11:42:55;100151.85;;;23.82;100.00
11413;BME280;5762;43.256;26.960;2023-06-04T11:45:23;100142.47;;;23.90;100.00
11413;BME280;5762;43.256;26.960;2023-06-04T11:47:53;100135.89;;;23.85;100.00
11413;BME280;5762;43.256;26.960;2023-06-04T11:50:23;100135.31;;;24.06;100.00
11413;BME280;5762;43.256;26.960;2023-06-04T11:52:52;100133.16;;;24.26;100.00
11413;BME280;5762;43.256;26.960;2023-06-04T11:55:20;100133.23;;;24.33;100.00
11413;BME280;5762;43.256;26.960;2023-06-04T11:57:49;100142.39;;;24.03;100.00
11413;BME280;5762;43.256;26.960;2023-06-04T12:00:19;100133.13;;;23.85;100.00
11413;BME280;5762;43.256;26.960;2023-06-04T12:02:49;100127.73;;;23.99;100.00
11413;BME280;5762;43.256;26.960;2023-06-04T12:05:18;100134.23;;;23.97;100.00
11413;BME280;5762;43.256;26.960;2023-06-04T12:07:47;100136.14;;;23.73;100.00
11413;BME280;5762;43.256;26.960;2023-06-04T12:10:16;100133.19;;;23.92;100.00
11413;BME280;5762;43.256;26.960;2023-06-04T12:12:45;100126.72;;;24.15;100.00
11413;BME280;5762;43.256;26.960;2023-06-04T12:15:18;100129.37;;;24.04;100.00
11413;BME280;5762;43.256;26.960;2023-06-04T12:17:50;100127.81;;;23.86;100.00
11413;BME280;5762;43.256;26.960;2023-06-04T12:20:19;100128.66;;;23.94;100.00
11413;BME280;5762;43.256;26.960;2023-06-04T12:22:48;100122.96;;;23.96;100.00
11413;BME280;5762;43.256;26.960;2023-06-04T12:25:24;100123.29;;;24.08;100.00
11413;BME280;5762;43.256;26.960;2023-06-04T12:27:55;100120.61;;;23.98;100.00
11413;BME280;5762;43.256;26.960;2023-06-04T12:30:40;100120.94;;;23.90;100.00
11413;BME280;5762;43.256;26.960;2023-06-04T12:33:07;100126.72;;;23.78;100.00
11413;BME280;5762;43.256;26.960;2023-06-04T12:35:37;100116.75;;;23.86;100.00
11413;BME280;5762;43.256;26.960;2023-06-04T12:38:05;100116.31;;;24.21;100.00
11413;BME280;5762;43.256;26.960;2023-06-04T12:40:35;100120.42;;;24.18;100.00
11413;BME280;5762;43.256;26.960;2023-06-04T12:43:04;100115.31;;;24.20;100.00
11413;BME280;5762;43.256;26.960;2023-06-04T12:45:33;100119.17;;;24.12;100.00
11413;BME280;5762;43.256;26.960;2023-06-04T12:48:02;100123.36;;;24.15;100.00
11413;BME280;5762;43.256;26.960;2023-06-04T12:50:31;100116.59;;;24.29;100.00
11413;BME280;5762;43.256;26.960;2023-06-04T12:53:00;100117.91;;;24.22;100.00
11413;BME280;5762;43.256;26.960;2023-06-04T12:55:29;100113.44;;;24.11;100.00
11413;BME280;5762;43.256;26.960;2023-06-04T12:57:58;100121.11;;;24.08;100.00